Aviation Digital Data Service (ADDS)

Output produced by METARs form (0217 UTC 16 January 2019)
found at http://www.aviationweather.gov/metar/data/
 
OIAA 160200Z 12006KT 6000 BKN040 15/15 Q1014
TAF OIAA 152310Z 1600/1706 03008KT 6000 BKN040 
     TEMPO 1600/1602 1500 BR 
     BECMG 1602/1604 09012KT 6000 FEW035CB SCT040 BKN090 
     TEMPO 1604/1615 14018G28KT 1500 TSRA FEW030CB SCT035 OVC080 
     TEMPO 1618/1624 0800 FG 
     TEMPO 1700/1706 24012KT 3000 RA BR FEW030CB SCT035 OVC080
       
OIAG 160200Z 10012KT 8000 FEW030CB BKN035 18/14 Q1016 RETSSHRA
OIAW 160200Z 10004KT 9999 BKN040 15/13 Q1014
TAF OIAW 152310Z 1600/1706 03008KT 7000 BKN040 
     TEMPO 1600/1603 3000 BR 
     BECMG 1603/1605 09012KT 6000 FEW035CB SCT040 BKN090 
     TEMPO 1606/1618 14022KT 1500 TSRA BR FEW030CB SCT035 OVC080 
     TEMPO 1618/1624 0800 FG 
     TEMPO 1700/1706 24012KT 3000 RA BR FEW030CB SCT035 OVC080
       
OITL 160150Z 21029G45KT 9999 FEW100 SCT200 05/M06 Q1011
OIKB 160200Z 34004KT 5000 BR NSC 16/15 Q1016 A3001
TAF OIKB 152310Z 1600/1706 04004KT 4000 BR NSC 
     TEMPO 1600/1603 2000 BR 
     BECMG 1606/1608 19010KT 7000 NSC 
     BECMG 1615/1617 3000 BR
       
OIBL 160200Z 36006KT 2500 BR NSC 18/17 Q1016
OIMB 160200Z 10004KT CAVOK 02/01 Q1020
OIMN 160200Z 00000KT CAVOK M02/M04 Q1017
OIBB 160200Z VRB02KT 9999 FEW035 18/13 Q1015 A3000
OIKQ 160200Z 31004KT 4000 BR NSC 18/16 Q1016
OIFM 160200Z 00000KT 8000 NSC M01/M04 Q1020 A3013
TAF OIFM 152310Z 1600/1706 26008KT 7000 NSC 
     BECMG 1608/1610 12008KT 7000 FEW040 SCT100 
     TEMPO 1612/1618 14018KT 4000 SHRA FEW035CB SCT040 BKN090 
     TEMPO 1618/1703 1500 BR 
     BECMG 1703/1705 12008KT 4000 RA FEW035CB SCT040 BKN090
       
OISF 160200Z 00000KT CAVOK 05/03 Q1019
OIAH 160200Z 00000KT 8000 SCT040 BKN100 13/10 Q1019
OIIK 160200Z 36002KT CAVOK 00/M03 Q1017
OING 160200Z 00000KT CAVOK 03/02 Q1013
OIHH 160150Z 00000KT CAVOK M03/M05 Q1017
OICI 160200Z 15006KT CAVOK 06/02 Q1019 A3009
TAF OICI 152310Z 1600/1706 10008KT 7000 NSC 
     TEMPO 1601/1603 3000 BR 
     BECMG 1609/1611 16010KT 7000 FEW035CB SCT040 BKN090 
     TEMPO 1612/1619 16020KT 3000 RA BR FEW030CB SCT035 OVC080 
     TEMPO 1621/1703 0800 FG 
     TEMPO 1703/1706 16020KT 3000 SNRA FEW030CB SCT035 OVC080
       
OIZI 160200Z 01006KT CAVOK 13/05 Q1019
OIZJ 160200Z 30010KT 5000 HZ NSC 22/18 Q1015
OINE 160200Z 02004KT CAVOK 05/01 Q1012
OIKK 160200Z 00000KT 9999 FEW040 SCT100 06/00 Q1023 A3021
TAF OIKK 152310Z 1600/1706 13008KT 7000 SCT040 BKN080 
     BECMG 1602/1604 FEW045 
     TEMPO 1608/1613 24014KT FEW030CB SCT035 BKN090 
     PROB40 1610/1613 4000 SHRA
       
OICK 160100Z 00000KT CAVOK 03/02 Q1020
OIBK 160200Z 00000KT 4000 BR NSC 19/18 Q1016
TAF OIBK 152310Z 1600/1706 32008KT 4000 BR NSC 
     BECMG 1605/1607 7000 NSC 
     BECMG 1615/1617 4000 BR
       
OISL 160200Z 00000KT CAVOK 09/06 Q1019
TAF OISL 152310Z 1600/1706 30008KT 8000 NSC
       
OIAM 160200Z 00000KT 9999 FEW035CB SCT040 17/15 Q1015
OIMM 160200Z 00000KT CAVOK 03/01 Q1018 A3006
TAF OIMM 152310Z 1600/1706 13008KT 8000 NSC 
     TEMPO 1608/1612 23020KT 
     BECMG 1620/1622 6000 SCT045 BKN160 
     TEMPO 1700/1706 4000 SHRA FEW035CB SCT045 OVC080
       
OIII 160200Z 05004KT CAVOK 07/M08 Q1017 A3005 NOSIG
TAF OIII 152310Z 1600/1706 32008KT CAVOK 
     BECMG 1615/1617 12008KT 7000 FEW040 SCT100 
     TEMPO 1618/1703 12012KT 4000 SNRA FEW035CB SCT040 BKN090
       
OINN 160200Z 00000KT CAVOK 07/03 Q1009
OITP 160200Z AUTO 24006KT //// // ////// 01/M02 Q1012
OINR 160200Z 27002KT CAVOK 07/06 Q1008
OIGG 160200Z 15012KT 7000 NSC 20/M07 Q1009
OITM 160200Z 13004KT CAVOK 01/M04 Q1015
OICS 160153Z 35004KT 9999 FEW040 01/M01 Q1016
OIMC 160200Z 18004KT CAVOK 03/02 Q1018
OIIS 160200Z 36002KT CAVOK 01/M01 Q1017
OICC 160200Z 10008KT 9999 SCT045 08/01 Q1017 A3005
OIAI 160200Z 34002KT 9999 SCT040 BKN100 14/13 Q1015
OIFS 160200Z 22002KT 9999 FEW040 02/M02 Q1021
OISS 160200Z 00000KT 2500 BR FEW010 FEW035 SCT090 06/06 Q1022 A3019
TAF OISS 152310Z 1600/1706 24008KT 4000 BR FEW035 SCT090 
     TEMPO 1600/1603 1000 FG 
     BECMG 1604/1606 24010KT 7000 FEW035CB SCT040 BKN090 
     TEMPO 1606/1612 24020KT 4000 SHRA FEW030CB SCT035 OVC080 
     TEMPO 1700/1706 4000 RA FEW030CB SCT035 OVC090
       
OIMT 160200Z AUTO 17002KT //// // ////// 07/M00 Q1018
OITT 160200Z 07006KT CAVOK M02/M04 Q1015 A2999
TAF OITT 152310Z 1600/1706 03008KT 7000 NSC 
     BECMG 1616/1618 24010KT 7000 FEW035CB SCT040 BKN100 
     TEMPO 1618/1624 24020KT 3000 SNRA BR FEW030CB SCT035 BKN090 
     TEMPO 1700/1703 3000 BR
       
OITR 160200Z 32004KT 9999 FEW040 M02/M05 Q1013
TAF OITR 152310Z 1600/1706 16008KT 7000 FEW040 
     BECMG 1616/1618 7000 SCT040 BKN100 
     TEMPO 1618/1624 4000 SNRA BR FEW035CB SCT040 BKN090 
     TEMPO 1700/1703 3000 BR
       
OISY 160200Z 11004KT 5000 RA FEW030CB SCT035 OVC080 05/05 Q1024
OIYY 160200Z 16004KT CAVOK 09/01 Q1020
OIZB 160200Z 01006KT CAVOK 09/M11 Q1019
OIZH 160200Z 23006KT CAVOK 09/M00 Q1020 A3014
TAF OIZH 152310Z 1600/1706 22008KT 7000 NSC 
     TEMPO 1605/1612 04012KT